createdAt,value
2019-04-13T00:01:43.408Z,1.62
2019-04-13T00:04:10.804Z,1.62
2019-04-13T00:06:39.355Z,1.57
2019-04-13T00:09:06.834Z,1.54
2019-04-13T00:11:52.069Z,1.54
2019-04-13T00:14:20.288Z,1.53
2019-04-13T00:16:47.380Z,1.51
2019-04-13T00:19:14.642Z,1.49
2019-04-13T00:21:41.586Z,1.47
2019-04-13T00:24:08.357Z,1.47
2019-04-13T00:26:36.084Z,1.42
2019-04-13T00:29:03.115Z,1.42
2019-04-13T00:31:29.847Z,1.42
2019-04-13T00:33:56.595Z,1.42
2019-04-13T00:36:23.784Z,1.43
2019-04-13T00:38:51.020Z,-0.08
2019-04-13T00:41:18.437Z,1.38
2019-04-13T00:43:45.482Z,1.38
2019-04-13T00:46:12.771Z,1.38
2019-04-13T00:48:39.630Z,1.37
2019-04-13T00:51:06.364Z,1.36
2019-04-13T00:53:33.140Z,1.36
2019-04-13T00:56:00.015Z,1.35
2019-04-13T00:58:28.432Z,1.35
2019-04-13T01:00:55.655Z,1.35
2019-04-13T01:03:22.439Z,1.33
2019-04-13T01:05:49.244Z,1.30
2019-04-13T01:08:16.328Z,-0.12
2019-04-13T01:10:43.397Z,-0.12
2019-04-13T01:13:10.156Z,1.24
2019-04-13T01:15:37.418Z,1.26
2019-04-13T01:18:06.154Z,1.27
2019-04-13T01:20:33.463Z,1.30
2019-04-13T01:23:00.747Z,1.33
2019-04-13T01:25:27.481Z,1.35
2019-04-13T01:27:54.243Z,1.33
2019-04-13T01:30:21.066Z,1.27
2019-04-13T01:32:48.234Z,1.27
2019-04-13T01:35:15.144Z,1.32
2019-04-13T01:37:41.961Z,1.32
2019-04-13T01:40:08.935Z,1.33
2019-04-13T01:42:35.545Z,1.36
2019-04-13T01:45:02.718Z,1.37
2019-04-13T01:47:30.416Z,1.37
2019-04-13T01:49:57.885Z,1.35
2019-04-13T01:52:24.981Z,1.33
2019-04-13T01:54:52.305Z,1.29
2019-04-13T01:57:19.953Z,1.28
2019-04-13T01:59:46.894Z,1.28
2019-04-13T02:02:18.576Z,1.28
2019-04-13T02:04:47.194Z,1.30
2019-04-13T02:07:28.645Z,1.38
2019-04-13T02:10:03.400Z,1.38
2019-04-13T02:12:30.731Z,1.39
2019-04-13T02:14:58.097Z,1.38
2019-04-13T02:17:25.285Z,1.38
2019-04-13T02:19:52.010Z,1.38
2019-04-13T02:22:18.855Z,1.35
2019-04-13T02:24:45.750Z,1.35
2019-04-13T02:27:12.620Z,-0.15
2019-04-13T02:29:39.288Z,1.27
2019-04-13T02:32:06.512Z,1.29
2019-04-13T02:34:33.942Z,1.28
2019-04-13T02:37:01.138Z,1.28
2019-04-13T02:39:27.930Z,1.27
2019-04-13T02:41:55.131Z,1.26
2019-04-13T02:44:23.253Z,1.26
2019-04-13T02:46:50.066Z,1.26
2019-04-13T02:49:16.794Z,1.25
2019-04-13T02:51:44.115Z,1.26
2019-04-13T02:54:10.884Z,1.15
2019-04-13T02:56:37.763Z,1.15
2019-04-13T02:59:05.108Z,1.15
2019-04-13T03:01:32.694Z,1.11
2019-04-13T03:03:59.404Z,1.08
2019-04-13T03:06:26.111Z,1.04
2019-04-13T03:08:53.129Z,1.01
2019-04-13T03:11:19.864Z,0.98
2019-04-13T03:13:46.711Z,0.94
2019-04-13T03:16:18.017Z,0.93
2019-04-13T03:19:04.699Z,0.93
2019-04-13T03:21:31.727Z,0.94
2019-04-13T03:23:58.985Z,0.92
2019-04-13T03:26:26.465Z,0.92
2019-04-13T03:28:53.086Z,0.92
2019-04-13T03:31:20.231Z,0.95
2019-04-13T03:33:46.995Z,0.94
2019-04-13T03:36:14.171Z,0.93
2019-04-13T03:38:41.875Z,0.93
2019-04-13T03:41:08.518Z,0.93
2019-04-13T03:43:35.601Z,0.92
2019-04-13T03:46:03.043Z,-0.57
2019-04-13T03:48:30.810Z,0.89
2019-04-13T03:50:57.522Z,0.85
2019-04-13T03:53:24.674Z,-0.65
2019-04-13T03:55:51.605Z,0.81
2019-04-13T03:58:18.381Z,0.81
2019-04-13T04:00:45.211Z,0.79
2019-04-13T04:03:12.241Z,-0.72
2019-04-13T04:05:39.762Z,0.78
2019-04-13T04:08:06.696Z,0.77
2019-04-13T04:10:34.462Z,0.78
2019-04-13T04:13:01.295Z,0.77
2019-04-13T04:15:28.637Z,0.76
2019-04-13T04:17:55.623Z,0.74
2019-04-13T04:20:22.749Z,0.72
2019-04-13T04:22:49.993Z,0.73
2019-04-13T04:25:16.761Z,0.75
2019-04-13T04:27:43.487Z,-0.73
2019-04-13T04:30:11.115Z,0.75
2019-04-13T04:32:37.762Z,0.75
2019-04-13T04:35:06.210Z,0.75
2019-04-13T04:37:33.274Z,0.77
2019-04-13T04:40:00.622Z,0.76
2019-04-13T04:42:27.639Z,0.79
2019-04-13T04:44:55.024Z,0.82
2019-04-13T04:47:22.393Z,0.84
2019-04-13T04:49:49.070Z,0.83
2019-04-13T04:52:15.787Z,0.86
2019-04-13T04:54:43.021Z,0.87
2019-04-13T04:57:09.851Z,0.90
2019-04-13T04:59:36.738Z,0.92
2019-04-13T05:02:04.731Z,0.93
2019-04-13T05:04:31.976Z,0.99
2019-04-13T05:06:58.595Z,0.99
2019-04-13T05:09:25.434Z,0.98
2019-04-13T05:11:52.769Z,0.99
2019-04-13T05:14:19.436Z,1.03
2019-04-13T05:16:46.072Z,1.03
2019-04-13T05:19:12.688Z,1.05
2019-04-13T05:21:39.726Z,1.07
2019-04-13T05:24:07.152Z,1.12
2019-04-13T05:26:35.112Z,1.12
2019-04-13T05:29:02.272Z,1.12
2019-04-13T05:31:30.824Z,1.16
2019-04-13T05:33:58.103Z,1.19
2019-04-13T05:36:24.745Z,1.21
2019-04-13T05:38:52.463Z,1.22
2019-04-13T05:41:19.198Z,1.24
2019-04-13T05:43:45.936Z,1.28
2019-04-13T05:46:13.638Z,1.29
2019-04-13T05:48:41.107Z,1.30
2019-04-13T05:51:07.951Z,1.33
2019-04-13T05:53:34.993Z,1.31
2019-04-13T05:56:02.106Z,0.25
2019-04-13T05:58:29.304Z,1.51
2019-04-13T06:00:56.388Z,1.51
2019-04-13T06:03:23.162Z,1.57
2019-04-13T06:05:49.803Z,1.57
2019-04-13T06:08:17.344Z,1.66
2019-04-13T06:10:44.815Z,1.70
2019-04-13T06:13:11.666Z,1.75
2019-04-13T06:15:38.599Z,1.83
2019-04-13T06:18:13.913Z,1.90
2019-04-13T06:20:36.469Z,2.04
2019-04-13T06:23:03.903Z,2.04
2019-04-13T06:25:31.009Z,2.11
2019-04-13T06:27:58.973Z,2.14
2019-04-13T06:30:42.449Z,2.31
2019-04-13T06:33:11.402Z,2.31
2019-04-13T06:35:38.249Z,2.39
2019-04-13T06:38:05.377Z,2.45
2019-04-13T06:40:31.990Z,2.45
2019-04-13T06:42:58.702Z,2.42
2019-04-13T06:45:26.448Z,2.31
2019-04-13T06:47:53.253Z,2.31
2019-04-13T06:50:19.961Z,2.32
2019-04-13T06:52:47.101Z,2.40
2019-04-13T06:55:15.985Z,2.43
2019-04-13T06:57:42.374Z,2.59
2019-04-13T07:00:12.072Z,2.62
2019-04-13T07:02:38.676Z,2.59
2019-04-13T07:05:05.763Z,2.63
2019-04-13T07:07:45.835Z,2.65
2019-04-13T07:10:31.168Z,2.79
2019-04-13T07:13:00.323Z,2.79
2019-04-13T07:15:31.645Z,2.82
2019-04-13T07:17:58.276Z,2.99
2019-04-13T07:20:25.220Z,2.99
2019-04-13T07:22:54.162Z,3.12
2019-04-13T07:25:20.734Z,3.27
2019-04-13T07:27:47.502Z,3.31
2019-04-13T07:30:14.639Z,3.31
2019-04-13T07:32:41.561Z,3.31
2019-04-13T07:35:09.715Z,3.25
2019-04-13T07:37:37.328Z,3.16
2019-04-13T07:40:06.010Z,3.13
2019-04-13T07:42:32.736Z,3.11
2019-04-13T07:45:04.101Z,3.11
2019-04-13T07:47:41.584Z,3.05
2019-04-13T07:50:16.119Z,3.05
2019-04-13T07:52:43.102Z,3.03
2019-04-13T07:55:10.603Z,3.10
2019-04-13T07:57:37.989Z,3.07
2019-04-13T08:00:05.703Z,3.03
2019-04-13T08:02:32.429Z,3.00
2019-04-13T08:04:59.571Z,2.99
2019-04-13T08:07:27.062Z,2.91
2019-04-13T08:09:53.727Z,2.85
2019-04-13T08:12:20.443Z,2.74
2019-04-13T08:14:47.690Z,2.74
2019-04-13T08:17:19.023Z,2.70
2019-04-13T08:19:47.602Z,2.65
2019-04-13T08:22:14.513Z,2.65
2019-04-13T08:24:41.457Z,2.79
2019-04-13T08:27:08.172Z,2.86
2019-04-13T08:29:35.454Z,3.01
2019-04-13T08:32:02.706Z,3.11
2019-04-13T08:34:29.687Z,3.27
2019-04-13T08:36:58.066Z,3.39
2019-04-13T08:39:26.874Z,2.41
2019-04-13T08:41:53.499Z,3.43
2019-04-13T08:44:20.311Z,2.28
2019-04-13T08:46:47.396Z,2.28
2019-04-13T08:49:14.458Z,3.60
2019-04-13T08:51:41.093Z,3.62
2019-04-13T08:54:07.809Z,3.69
2019-04-13T08:56:34.900Z,3.59
2019-04-13T08:59:02.141Z,3.53
2019-04-13T09:01:28.800Z,3.47
2019-04-13T09:03:56.640Z,3.40
2019-04-13T09:06:23.510Z,3.35
2019-04-13T09:08:50.784Z,3.38
2019-04-13T09:11:19.981Z,3.31
2019-04-13T09:13:46.212Z,3.31
2019-04-13T09:16:12.866Z,3.43
2019-04-13T09:18:42.165Z,3.45
2019-04-13T09:21:14.638Z,3.48
2019-04-13T09:23:45.395Z,3.51
2019-04-13T09:26:11.449Z,3.60
2019-04-13T09:28:43.086Z,3.63
2019-04-13T09:31:09.364Z,3.63
2019-04-13T09:33:35.965Z,3.30
2019-04-13T09:36:02.873Z,3.52
2019-04-13T09:38:41.739Z,3.43
2019-04-13T09:41:00.256Z,3.38
2019-04-13T09:43:29.344Z,3.34
2019-04-13T09:45:56.571Z,3.35
2019-04-13T09:48:23.497Z,3.29
2019-04-13T09:50:50.903Z,3.20
2019-04-13T09:53:19.754Z,3.09
2019-04-13T09:55:49.721Z,2.94
2019-04-13T09:58:15.387Z,3.01
2019-04-13T10:00:44.013Z,3.09
2019-04-13T10:03:10.742Z,3.08
2019-04-13T10:05:38.039Z,2.95
2019-04-13T10:08:05.785Z,2.95
2019-04-13T10:10:33.885Z,2.86
2019-04-13T10:13:11.322Z,2.86
2019-04-13T10:15:42.862Z,3.00
2019-04-13T10:18:17.358Z,3.07
2019-04-13T10:20:44.648Z,3.07
2019-04-13T10:23:11.441Z,3.12
2019-04-13T10:25:38.925Z,3.19
2019-04-13T10:28:05.946Z,3.18
2019-04-13T10:30:32.821Z,3.17
2019-04-13T10:32:59.457Z,3.21
2019-04-13T10:35:26.478Z,3.23
2019-04-13T10:37:54.714Z,3.30
2019-04-13T10:40:21.733Z,3.38
2019-04-13T10:42:48.790Z,3.46
2019-04-13T10:45:17.350Z,3.51
2019-04-13T10:47:51.991Z,3.60
2019-04-13T10:50:26.548Z,3.65
2019-04-13T10:52:54.465Z,3.62
2019-04-13T10:55:22.101Z,3.56
2019-04-13T10:57:49.144Z,3.49
2019-04-13T11:00:16.059Z,3.42
2019-04-13T11:02:42.777Z,3.40
2019-04-13T11:05:09.916Z,3.42
2019-04-13T11:07:36.747Z,3.44
2019-04-13T11:10:04.062Z,3.49
2019-04-13T11:12:31.209Z,3.58
2019-04-13T11:14:57.911Z,3.73
2019-04-13T11:17:29.026Z,3.89
2019-04-13T11:19:53.568Z,4.11
2019-04-13T11:22:22.133Z,4.31
2019-04-13T11:24:48.812Z,4.45
2019-04-13T11:27:16.427Z,3.26
2019-04-13T11:29:43.173Z,4.68
2019-04-13T11:32:09.864Z,4.76
2019-04-13T11:34:36.564Z,4.86
2019-04-13T11:37:05.629Z,4.96
2019-04-13T11:39:34.064Z,5.03
2019-04-13T11:42:05.418Z,5.17
2019-04-13T11:44:39.776Z,5.31
2019-04-13T11:47:17.216Z,5.42
2019-04-13T11:49:44.342Z,5.56
2019-04-13T11:52:10.935Z,5.63
2019-04-13T11:54:37.646Z,5.71
2019-04-13T11:57:04.545Z,5.79
2019-04-13T11:59:31.244Z,5.80
2019-04-13T12:02:05.590Z,5.73
2019-04-13T12:04:48.757Z,5.61
2019-04-13T12:07:17.252Z,5.54
2019-04-13T12:10:03.486Z,5.56
2019-04-13T12:12:41.410Z,5.66
2019-04-13T12:15:10.113Z,5.77
2019-04-13T12:17:41.493Z,5.82
2019-04-13T12:20:11.365Z,5.86
2019-04-13T12:22:39.012Z,5.92
2019-04-13T12:25:06.058Z,5.92
2019-04-13T12:27:33.913Z,5.82
2019-04-13T12:30:00.587Z,5.89
2019-04-13T12:32:28.828Z,6.15
2019-04-13T12:34:55.947Z,6.33
2019-04-13T12:37:22.881Z,6.50
2019-04-13T12:40:02.229Z,6.72
2019-04-13T12:42:20.426Z,6.91
2019-04-13T12:44:49.933Z,6.91
2019-04-13T12:47:17.681Z,6.78
2019-04-13T12:49:44.841Z,6.77
2019-04-13T12:52:11.536Z,7.04
2019-04-13T12:54:38.387Z,7.40
2019-04-13T12:57:05.273Z,7.58
2019-04-13T12:59:36.162Z,7.76
2019-04-13T13:02:05.316Z,7.77
2019-04-13T13:04:36.725Z,7.73
2019-04-13T13:07:06.370Z,7.55
2019-04-13T13:09:32.178Z,7.54
2019-04-13T13:11:59.556Z,7.58
2019-04-13T13:14:28.698Z,7.54
2019-04-13T13:16:55.120Z,7.54
2019-04-13T13:19:22.299Z,7.40
2019-04-13T13:21:49.120Z,7.22
2019-04-13T13:24:16.061Z,7.09
2019-04-13T13:26:49.087Z,6.13
2019-04-13T13:29:12.095Z,6.77
2019-04-13T13:31:38.712Z,6.86
2019-04-13T13:34:05.746Z,6.99
2019-04-13T13:36:32.566Z,7.20
2019-04-13T13:38:59.332Z,7.45
2019-04-13T13:41:26.061Z,7.58
2019-04-13T13:43:54.205Z,7.62
2019-04-13T13:46:20.999Z,7.51
2019-04-13T13:48:47.817Z,6.26
2019-04-13T13:51:14.761Z,7.42
2019-04-13T13:53:42.009Z,7.37
2019-04-13T13:56:09.309Z,7.24
2019-04-13T13:58:41.347Z,7.06
2019-04-13T14:01:26.308Z,6.92
2019-04-13T14:03:54.368Z,6.88
2019-04-13T14:06:21.422Z,4.39
2019-04-13T14:08:49.067Z,6.75
2019-04-13T14:11:16.313Z,6.67
2019-04-13T14:13:44.603Z,6.63
2019-04-13T14:16:11.523Z,6.65
2019-04-13T14:18:39.926Z,6.62
2019-04-13T14:21:07.503Z,6.62
2019-04-13T14:23:34.701Z,6.67
2019-04-13T14:26:01.488Z,6.80
2019-04-13T14:28:28.909Z,7.00
2019-04-13T14:31:06.295Z,6.98
2019-04-13T14:33:45.512Z,6.85
2019-04-13T14:36:20.081Z,5.57
2019-04-13T14:38:51.337Z,6.82
2019-04-13T14:41:23.685Z,6.89
2019-04-13T14:43:57.767Z,7.01
2019-04-13T14:46:30.749Z,6.96
2019-04-13T14:49:02.015Z,6.93
2019-04-13T14:51:36.345Z,6.91
2019-04-13T14:54:08.507Z,6.90
2019-04-13T14:56:41.325Z,6.83
2019-04-13T14:59:16.415Z,6.83
2019-04-13T15:01:43.410Z,6.79
2019-04-13T15:04:14.734Z,6.81
2019-04-13T15:06:45.945Z,6.79
2019-04-13T15:09:18.118Z,6.94
2019-04-13T15:11:50.161Z,7.12
2019-04-13T15:14:23.737Z,7.12
2019-04-13T15:16:58.439Z,6.91
2019-04-13T15:19:35.973Z,6.78
2019-04-13T15:21:55.171Z,6.67
2019-04-13T15:24:23.250Z,6.60
2019-04-13T15:26:59.337Z,6.47
2019-04-13T15:29:32.108Z,6.41
2019-04-13T15:32:06.417Z,6.38
2019-04-13T15:34:42.699Z,6.28
2019-04-13T15:37:12.918Z,6.24
2019-04-13T15:39:47.000Z,6.19
2019-04-13T15:42:33.130Z,6.25
2019-04-13T15:45:00.692Z,6.24
2019-04-13T15:47:36.885Z,6.27
2019-04-13T15:50:05.516Z,6.25
2019-04-13T15:52:32.767Z,4.98
2019-04-13T15:55:00.008Z,5.00
2019-04-13T15:57:26.752Z,6.28
2019-04-13T15:59:54.058Z,6.33
2019-04-13T16:02:21.276Z,6.43
2019-04-13T16:04:48.724Z,5.21
2019-04-13T16:07:15.973Z,6.54
2019-04-13T16:10:01.912Z,5.37
2019-04-13T16:12:31.964Z,6.57
2019-04-13T16:14:59.081Z,6.31
2019-04-13T16:17:27.422Z,6.36
2019-04-13T16:19:54.636Z,6.28
2019-04-13T16:22:21.487Z,6.20
2019-04-13T16:24:48.336Z,6.13
2019-04-13T16:27:16.290Z,5.99
2019-04-13T16:29:51.206Z,5.92
2019-04-13T16:32:36.161Z,5.90
2019-04-13T16:35:12.346Z,5.89
2019-04-13T16:37:41.816Z,5.85
2019-04-13T16:40:09.252Z,5.83
2019-04-13T16:42:38.356Z,4.47
2019-04-13T16:45:23.452Z,5.74
2019-04-13T16:47:52.003Z,5.77
2019-04-13T16:50:21.670Z,5.77
2019-04-13T16:52:50.883Z,5.75
2019-04-13T16:55:26.545Z,5.76
2019-04-13T16:58:07.374Z,5.77
2019-04-13T17:00:52.339Z,5.76
2019-04-13T17:03:20.884Z,5.75
2019-04-13T17:05:49.825Z,5.73
2019-04-13T17:08:16.533Z,4.51
2019-04-13T17:10:44.220Z,5.69
2019-04-13T17:13:11.834Z,5.68
2019-04-13T17:15:39.761Z,5.67
2019-04-13T17:18:09.928Z,4.31
2019-04-13T17:20:55.655Z,4.34
2019-04-13T17:23:31.491Z,5.49
2019-04-13T17:26:02.682Z,5.48
2019-04-13T17:28:48.053Z,5.48
2019-04-13T17:31:16.781Z,5.45
2019-04-13T17:33:48.386Z,5.39
2019-04-13T17:36:17.665Z,5.33
2019-04-13T17:38:45.593Z,5.23
2019-04-13T17:41:23.514Z,3.88
2019-04-13T17:43:52.027Z,5.13
2019-04-13T17:46:38.642Z,5.06
2019-04-13T17:49:21.937Z,4.97
2019-04-13T17:52:07.443Z,4.88
2019-04-13T17:54:35.961Z,4.80
2019-04-13T17:57:03.528Z,4.76
2019-04-13T17:59:38.499Z,3.47
2019-04-13T18:02:07.207Z,4.67
2019-04-13T18:04:37.307Z,4.63
2019-04-13T18:07:22.098Z,4.60
2019-04-13T18:09:50.900Z,4.57
2019-04-13T18:12:22.137Z,4.24
2019-04-13T18:14:51.081Z,4.48
2019-04-13T18:17:34.968Z,4.41
2019-04-13T18:20:03.028Z,4.38
2019-04-13T18:22:30.865Z,4.34
2019-04-13T18:24:59.139Z,4.32
2019-04-13T18:27:26.104Z,4.27
2019-04-13T18:30:05.120Z,4.25
2019-04-13T18:32:21.573Z,4.20
2019-04-13T18:34:49.781Z,3.52
2019-04-13T18:37:17.690Z,4.12
2019-04-13T18:39:46.239Z,4.07
2019-04-13T18:42:13.480Z,4.02
2019-04-13T18:44:40.768Z,3.98
2019-04-13T18:47:09.339Z,3.94
2019-04-13T18:49:36.745Z,3.92
2019-04-13T18:52:05.130Z,3.88
2019-04-13T18:54:32.175Z,3.81
2019-04-13T18:57:00.341Z,3.79
2019-04-13T18:59:27.353Z,3.77
2019-04-13T19:01:54.363Z,3.79
2019-04-13T19:04:20.988Z,3.79
2019-04-13T19:06:48.012Z,3.78
2019-04-13T19:09:14.818Z,3.75
2019-04-13T19:11:41.539Z,3.70
2019-04-13T19:14:08.588Z,3.68
2019-04-13T19:16:35.301Z,3.69
2019-04-13T19:19:02.275Z,2.30
2019-04-13T19:21:28.875Z,3.00
2019-04-13T19:23:56.940Z,3.65
2019-04-13T19:26:23.758Z,3.65
2019-04-13T19:28:50.823Z,3.66
2019-04-13T19:31:17.933Z,3.65
2019-04-13T19:33:44.676Z,3.65
2019-04-13T19:36:11.316Z,3.63
2019-04-13T19:38:38.133Z,3.61
2019-04-13T19:41:05.194Z,3.61
2019-04-13T19:43:32.072Z,3.58
2019-04-13T19:45:59.622Z,2.19
2019-04-13T19:48:26.725Z,3.57
2019-04-13T19:50:53.641Z,3.56
2019-04-13T19:53:22.283Z,3.56
2019-04-13T19:55:49.622Z,3.53
2019-04-13T19:58:16.327Z,3.52
2019-04-13T20:00:47.801Z,3.48
2019-04-13T20:03:14.822Z,3.47
2019-04-13T20:05:41.435Z,3.41
2019-04-13T20:08:08.565Z,3.36
2019-04-13T20:10:35.190Z,3.03
2019-04-13T20:13:04.086Z,3.28
2019-04-13T20:15:31.401Z,3.26
2019-04-13T20:17:58.117Z,3.19
2019-04-13T20:20:28.486Z,3.20
2019-04-13T20:22:55.232Z,3.20
2019-04-13T20:25:22.357Z,3.18
2019-04-13T20:27:49.882Z,1.79
2019-04-13T20:30:17.353Z,3.14
2019-04-13T20:32:44.891Z,3.13
2019-04-13T20:35:12.720Z,3.13
2019-04-13T20:37:40.411Z,3.11
2019-04-13T20:40:09.905Z,3.13
2019-04-13T20:42:37.311Z,3.11
2019-04-13T20:45:05.280Z,3.11
2019-04-13T20:47:32.995Z,3.10
2019-04-13T20:50:00.350Z,3.07
2019-04-13T20:52:28.684Z,3.03
2019-04-13T20:54:56.010Z,2.99
2019-04-13T20:57:23.871Z,2.96
2019-04-13T20:59:52.062Z,2.93
2019-04-13T21:02:19.820Z,2.88
2019-04-13T21:04:47.987Z,2.82
2019-04-13T21:07:16.012Z,2.75
2019-04-13T21:09:42.757Z,2.68
2019-04-13T21:12:09.972Z,2.67
2019-04-13T21:14:42.500Z,2.64
2019-04-13T21:17:07.017Z,2.61
2019-04-13T21:19:35.007Z,2.57
2019-04-13T21:22:02.834Z,2.56
2019-04-13T21:24:30.633Z,2.51
2019-04-13T21:26:58.795Z,2.53
2019-04-13T21:29:26.376Z,2.53
2019-04-13T21:31:54.319Z,2.50
2019-04-13T21:34:22.138Z,1.16
2019-04-13T21:36:49.882Z,2.43
2019-04-13T21:39:17.962Z,2.43
2019-04-13T21:41:45.584Z,2.39
2019-04-13T21:44:22.748Z,2.23
2019-04-13T21:46:41.494Z,2.23
2019-04-13T21:49:09.717Z,2.18
2019-04-13T21:51:47.301Z,2.14
2019-04-13T21:54:16.781Z,2.02
2019-04-13T21:56:43.502Z,2.02
2019-04-13T21:59:10.818Z,2.02
2019-04-13T22:01:43.244Z,2.00
2019-04-13T22:04:10.916Z,2.00
2019-04-13T22:06:38.744Z,1.99
2019-04-13T22:09:08.800Z,1.93
2019-04-13T22:11:36.544Z,1.88
2019-04-13T22:14:05.188Z,1.88
2019-04-13T22:16:34.059Z,1.81
2019-04-13T22:19:00.851Z,1.81
2019-04-13T22:21:28.665Z,1.67
2019-04-13T22:23:56.384Z,1.67
2019-04-13T22:26:24.076Z,1.57
2019-04-13T22:28:53.945Z,1.50
2019-04-13T22:31:37.964Z,1.47
2019-04-13T22:34:07.509Z,1.38
2019-04-13T22:36:44.749Z,1.23
2019-04-13T22:39:11.846Z,0.97
2019-04-13T22:41:39.546Z,0.97
2019-04-13T22:44:07.317Z,1.12
2019-04-13T22:46:34.931Z,1.12
2019-04-13T22:49:10.264Z,1.07
2019-04-13T22:51:42.256Z,-0.40
2019-04-13T22:54:23.538Z,0.97
2019-04-13T22:56:52.918Z,0.84
2019-04-13T22:59:20.618Z,0.80
2019-04-13T23:01:52.994Z,0.80
2019-04-13T23:04:21.180Z,0.77
2019-04-13T23:06:48.989Z,0.67
2019-04-13T23:09:17.155Z,-0.30
2019-04-13T23:11:45.256Z,-0.30
2019-04-13T23:14:13.371Z,0.58
2019-04-13T23:16:41.330Z,0.54
2019-04-13T23:19:09.054Z,0.47
2019-04-13T23:21:37.531Z,0.47
2019-04-13T23:24:06.079Z,0.43
2019-04-13T23:26:34.020Z,0.38
2019-04-13T23:29:01.881Z,0.38
2019-04-13T23:31:28.769Z,-1.08
2019-04-13T23:33:56.378Z,0.25
2019-04-13T23:36:23.230Z,0.25
2019-04-13T23:38:50.810Z,0.25
2019-04-13T23:41:18.945Z,0.20
2019-04-13T23:43:45.777Z,0.19
2019-04-13T23:46:13.120Z,0.17
2019-04-13T23:48:40.185Z,0.16
2019-04-13T23:51:07.773Z,0.14
2019-04-13T23:53:35.870Z,0.08
2019-04-13T23:56:06.139Z,0.06
2019-04-13T23:58:40.982Z,0.05
